Flight Track Log - Related Links

Times and Time Zones

All times are in EDT time to prevent confusion due to time zone crossing. See the EJA947 flight status page for this flight to view local times or setup timezone preferences in your user account.

Time Position Orientation Groundspeed Altitude Reporting Facility
EDT Latitude Longitude Course Direction KTS MPH feet Rate Location/Type
Sat 04:03:02 PM 38.7764 -97.5667 88° East 237 273 6,100  Level Kansas City Center
Sat 04:04:05 PM 38.7961 -97.4647 76° East 290 334 8,200 2,274 Climbing Kansas City Center
Sat 04:05:06 PM 38.8186 -97.3475 76° East 322 371 10,800 1,967 Climbing Kansas City Center
Sat 04:06:07 PM 38.8444 -97.2097 76° East 390 449 12,200 1,790 Climbing Kansas City Center
Sat 04:07:00 PM 39.0083 -96.4129 77° East  Level FlightAware Approximate
Sat 04:07:10 PM 38.8725 -97.0653 76° East 401 461 14,500  Level Kansas City Center
Sat 04:08:11 PM 38.8958 -96.9381 77° East 405 466 16,400 1,854 Climbing Kansas City Center
Sat 04:09:13 PM 38.9236 -96.7917 76° East 418 481 18,300 1,935 Climbing Kansas City Center
Sat 04:10:15 PM 38.9439 -96.6408 80° East 426 490 20,400 2,049 Climbing Kansas City Center
Sat 04:11:16 PM 38.9633 -96.4722 82° East 443 510 22,500 2,066 Climbing Kansas City Center
Sat 04:12:17 PM 38.9869 -96.2958 80° East 450 518 24,600 1,872 Climbing Kansas City Center
Sat 04:13:21 PM 39.0081 -96.1369 80° East 467 537 26,400 1,872 Climbing Kansas City Center
Sat 04:14:22 PM 39.0325 -95.9472 81° East 482 555 28,500 1,918 Climbing Kansas City Center
Sat 04:15:23 PM 39.0542 -95.7806 80° East 493 567 30,300 2,115 Climbing Kansas City Center
Sat 04:16:24 PM 39.0806 -95.5828 80° East 501 577 32,800 2,256 Climbing Kansas City Center
Sat 04:17:28 PM 39.1033 -95.4064 80° East 500 575 35,000 1,645 Climbing Kansas City Center
Sat 04:18:28 PM 39.1264 -95.2283 80° East 505 581 36,200 1,041 Climbing Kansas City Center
Sat 04:19:29 PM 39.1464 -95.0469 82° East 524 603 37,100 984 Climbing Kansas City Center
Sat 04:20:30 PM 39.1606 -94.8328 85° East 539 620 38,200 919 Climbing Kansas City Center
Sat 04:21:33 PM 39.1783 -94.6458 83° East 551 634 39,000 387 Climbing Kansas City Center
Sat 04:22:34 PM 39.2042 -94.4253 81° East 558 642 39,000  Level Kansas City Center
Sat 04:23:36 PM 39.2275 -94.2328 81° East 567 652 39,000  Level Kansas City Center
Sat 04:24:40 PM 39.2500 -94.0394 81° East 567 652 39,000  Level Kansas City Center
Sat 04:25:41 PM 39.2756 -93.8128 82° East 569 655 39,000  Level Kansas City Center
Sat 04:26:41 PM 39.3006 -93.6019 81° East 573 659 39,000  Level Kansas City Center
Sat 04:27:42 PM 39.3222 -93.4036 82° East 565 650 39,000  Level Kansas City Center
Sat 04:28:46 PM 39.3467 -93.2103 81° East 557 641 39,000  Level Kansas City Center
Sat 04:29:48 PM 39.3650 -93.0103 83° East 564 649 39,000  Level Kansas City Center
Sat 04:30:48 PM 39.3864 -92.8083 82° East 571 657 39,000  Level Kansas City Center
Sat 04:31:49 PM 39.4119 -92.5711 82° East 566 651 39,000  Level Kansas City Center
Sat 04:32:53 PM 39.4311 -92.3753 83° East 561 646 39,000  Level Kansas City Center
Sat 04:33:55 PM 39.4511 -92.1778 82° East 560 644 39,000  Level Kansas City Center
Sat 04:34:56 PM 39.4714 -91.9756 83° East 566 651 39,000  Level Kansas City Center
Sat 04:35:58 PM 39.4911 -91.7750 83° East 569 655 39,000  Level Kansas City Center
Sat 04:36:59 PM 39.5117 -91.5356 84° East 566 651 39,000  Level Kansas City Center
Sat 04:38:02 PM 39.5311 -91.3278 83° East 567 652 39,000  Level Kansas City Center
Sat 04:39:04 PM 39.5500 -91.1222 83° East 571 657 39,000  Level Kansas City Center
Sat 04:40:04 PM 39.5683 -90.9150 83° East 575 662 39,000  Level Kansas City Center
Sat 04:41:05 PM 39.5875 -90.7083 83° East 577 664 39,000  Level Kansas City Center
Sat 04:42:09 PM 39.6050 -90.5008 84° East 577 664 39,000  Level Kansas City Center
Sat 04:43:09 PM 39.6222 -90.2928 84° East 578 665 39,000  Level Kansas City Center
Sat 04:44:12 PM 39.6389 -90.0844 84° East 579 666 39,000  Level Kansas City Center
Sat 04:45:15 PM 39.6567 -89.8756 84° East 580 667 39,000  Level Kansas City Center
Sat 04:46:16 PM 39.6756 -89.6231 84° East 583 671 39,000  Level Kansas City Center
Sat 04:47:16 PM 39.6917 -89.4122 84° East 585 673 39,000  Level Kansas City Center
Sat 04:48:20 PM 39.7061 -89.2058 85° East 588 677 39,000  Level Kansas City Center
Sat 04:49:20 PM 39.7225 -88.9947 84° East 590 679 39,000  Level Kansas City Center
Sat 04:50:21 PM 39.7372 -88.7811 85° East 594 684 39,000  Level Kansas City Center
Sat 04:51:25 PM 39.7508 -88.5686 85° East 594 684 39,000  Level Kansas City Center
Sat 04:52:25 PM 39.7689 -88.3122 85° East 595 685 39,000  Level Kansas City Center
Sat 04:53:26 PM 39.7836 -88.0931 85° East 595 685 39,000  Level Kansas City Center
Sat 04:54:22 PM 39.7936 -87.9225 86° East 595 685 39,000  Level Indianapolis Center
Sat 04:55:23 PM 39.8067 -87.7069 85° East 595 685 39,000  Level Indianapolis Center
Sat 04:56:25 PM 39.8208 -87.4508 86° East 593 682 39,000  Level Indianapolis Center
Sat 04:57:26 PM 39.8336 -87.2328 86° East 598 688 39,000  Level Indianapolis Center
Sat 04:58:28 PM 39.8453 -87.0161 86° East 597 687 39,000  Level Indianapolis Center
Sat 04:59:29 PM 39.8586 -86.8006 85° East 596 686 39,000 98 Level Indianapolis Center
Sat 05:00:31 PM 39.8686 -86.5844 86° East 595 685 39,200 683 Climbing Indianapolis Center
Sat 05:01:32 PM 39.8786 -86.3733 86° East 585 673 40,400 878 Climbing Indianapolis Center
Sat 05:02:34 PM 39.8892 -86.1672 86° East 572 658 41,000 293 Climbing Indianapolis Center
Sat 05:03:35 PM 39.8992 -85.9575 86° East 575 662 41,000  Level Indianapolis Center
Sat 05:05:38 PM 39.9158 -85.5289 87° East 593 682 41,000  Level Indianapolis Center
Sat 05:06:40 PM 39.9258 -85.2758 87° East 595 685 41,000  Level Indianapolis Center
Sat 05:07:41 PM 39.9358 -85.0586 86° East 596 686 41,000  Level Indianapolis Center
Sat 05:08:43 PM 39.9439 -84.8414 87° East 597 687 41,000  Level Indianapolis Center
Sat 05:09:44 PM 39.9511 -84.6222 87° East 598 688 41,000  Level Indianapolis Center
Sat 05:10:46 PM 39.9589 -84.4022 87° East 603 694 41,000  Level Indianapolis Center
Sat 05:11:47 PM 39.9653 -84.1847 88° East 600 690 41,000  Level Indianapolis Center
Sat 05:12:49 PM 39.9714 -83.9661 88° East 597 687 41,000  Level Indianapolis Center
Sat 05:13:50 PM 39.9769 -83.7461 88° East 599 689 41,000  Level Indianapolis Center
Sat 05:14:52 PM 39.9836 -83.5231 88° East 600 690 41,000  Level Indianapolis Center
Sat 05:15:53 PM 39.9886 -83.2967 88° East 605 696 41,000  Level Indianapolis Center
Sat 05:16:55 PM 39.9928 -83.0744 89° East 604 695 41,000  Level Indianapolis Center
Sat 05:17:56 PM 39.9969 -82.8536 89° East 602 693 41,000  Level Indianapolis Center
Sat 05:18:58 PM 40.0014 -82.6344 88° East 600 690 41,000  Level Indianapolis Center
Sat 05:19:59 PM 40.0047 -82.4144 89° East 601 692 41,000  Level Indianapolis Center
Sat 05:21:01 PM 40.0075 -82.1944 89° East 601 692 41,000  Level Indianapolis Center
Sat 05:22:02 PM 40.0100 -81.9747 89° East 600 690 41,000  Level Indianapolis Center
Sat 05:23:04 PM 40.0117 -81.7392 89° East 600 690 41,000  Level Indianapolis Center
Sat 05:24:05 PM 40.0136 -81.5197 89° East 602 693 41,000  Level Indianapolis Center
Sat 05:25:07 PM 40.0156 -81.3006 89° East 601 692 41,000  Level Indianapolis Center
Sat 05:26:08 PM 40.0161 -81.0814 90° East 602 693 41,000  Level Indianapolis Center
Sat 05:26:47 PM 40.0186 -80.9192 89° East 590 679 41,000  Level Cleveland Center
Sat 05:27:47 PM 40.0358 -80.6997 84° East 590 679 41,000  Level Cleveland Center
Sat 05:28:47 PM 40.0714 -80.4856 78° East 595 685 41,000  Level Cleveland Center
Sat 05:29:47 PM 40.1022 -80.2736 79° East 595 685 41,000  Level Cleveland Center
Sat 05:30:47 PM 40.1347 -80.0564 79° East 600 690 41,000  Level Cleveland Center
Sat 05:31:47 PM 40.1692 -79.8578 77° East 610 702 41,000  Level Cleveland Center
Sat 05:32:47 PM 40.2008 -79.6453 79° East 605 696 41,000  Level Cleveland Center
Sat 05:33:47 PM 40.2322 -79.4272 79° East 605 696 41,000  Level Cleveland Center
Sat 05:34:47 PM 40.2650 -79.1900 80° East 600 690 41,000  Level Cleveland Center
Sat 05:35:47 PM 40.2956 -78.9717 80° East 600 690 41,000  Level Cleveland Center
Sat 05:36:47 PM 40.3172 -78.7533 83° East 605 696 41,000  Level Cleveland Center
Sat 05:37:47 PM 40.3158 -78.5517 90° East 599 689 41,000  Level Cleveland Center
Sat 05:38:47 PM 40.3139 -78.3339 91° East 599 689 41,000  Level Cleveland Center
Sat 05:41:12 PM 40.3122 -77.8078 90° East 609 701 41,000  Level New York Center
Sat 05:42:11 PM 40.3603 -77.5947 73° East 609 701 41,000  Level New York Center
Sat 05:43:11 PM 40.4694 -77.4364 48° Northeast 565 650 41,000  Level New York Center
Sat 05:44:12 PM 40.5953 -77.2708 45° Northeast 571 657 41,000  Level New York Center
Sat 05:45:10 PM 40.7142 -77.1178 44° Northeast 582 670 41,000  Level New York Center
Sat 05:46:10 PM 40.8306 -76.9667 44° Northeast 582 670 41,000  Level New York Center
Sat 05:47:11 PM 40.9192 -76.7825 57° Northeast 589 678 41,000  Level New York Center
Sat 05:48:12 PM 40.9858 -76.5767 67° East 589 678 41,000 -541 Level New York Center
Sat 05:49:13 PM 41.0519 -76.3703 67° East 600 690 39,900 -1,750 Descending New York Center
Sat 05:50:12 PM 41.1222 -76.1558 66° East 618 711 37,500 -2,513 Descending New York Center
Sat 05:51:10 PM 41.1847 -75.9706 66° East 625 719 35,000 -3,025 Descending New York Center
Sat 05:52:11 PM 41.2378 -75.7539 72° East 625 719 31,500 -3,669 Descending New York Center
Sat 05:53:11 PM 41.2217 -75.5375 96° East 599 689 27,600 -3,681 Descending New York Center
Sat 05:54:10 PM 41.1619 -75.3625 114° Southeast 529 609 24,200 -2,300 Descending New York Center
Sat 05:55:11 PM 41.1000 -75.1819 114° Southeast 529 609 23,000 -590 Descending New York Center
Sat 05:56:12 PM 41.0400 -75.0047 114° Southeast 529 609 23,000  Level New York Center
Sat 05:57:12 PM 40.9925 -74.8122 108° East 529 609 23,000  Level New York Center
Sat 05:58:10 PM 40.9697 -74.6156 99° East 530 610 23,000 -50 Level New York Center
Sat 05:59:11 PM 40.9506 -74.4386 98° East 519 597 22,900 -815 Descending New York Center
Sat 05:59:31 PM 40.9333 -74.3667 108° East 444 511 21,900 -2,400 Descending New York TRACON
Sat 06:00:31 PM 40.9167 -74.2000 97° East 425 489 19,700 -1,081 Descending New York TRACON
Sat 06:02:12 PM 40.8906 -73.9964 100° East 383 441 19,000 -1,000 Descending New York Center
Sat 06:03:13 PM 40.8017 -73.9675 166° South 278 320 17,000 -2,278 Descending New York Center
Sat 06:03:31 PM 40.7667 -73.9667 179° South 301 346 16,000 -2,051 Descending New York TRACON
Sat 06:05:10 PM 40.6356 -73.9461 173° South 298 343 13,000 -1,500 Descending New York Center
Sat 06:05:31 PM 40.6000 -73.9333 165° South 296 341 13,000 -963 Level New York TRACON
Sat 06:06:31 PM 40.5333 -73.9333 180° South 285 328 11,700 -1,650 Descending New York TRACON
Sat 06:07:31 PM 40.4500 -73.8667 149° Southeast 317 365 9,700 -2,000 Descending New York TRACON
Sat 06:08:31 PM 40.3833 -73.8000 143° Southeast 313 360 7,700 -1,850 Descending New York TRACON
Sat 06:09:31 PM 40.3167 -73.7167 136° Southeast 301 346 6,000 -1,396 Descending New York TRACON
Sat 06:11:10 PM 40.2906 -73.5900 105° East 240 276 4,000 -755 Descending New York Center
Sat 06:12:10 PM 40.3381 -73.5211 48° Northeast 234 269 4,000  Level New York Center
Sat 06:13:11 PM 40.3919 -73.4389 49° Northeast 260 299 4,000  Level New York Center
Sat 06:14:12 PM 40.4353 -73.3669 52° Northeast 274 315 4,000  Level New York Center
Sat 06:14:31 PM 40.4500 -73.3333 60° Northeast 277 319 4,000  Level New York TRACON
Sat 06:15:31 PM 40.5000 -73.2500 52° Northeast 280 322 4,000  Level New York TRACON
Sat 06:16:31 PM 40.5500 -73.1667 52° Northeast 284 327 4,000 -300 Level New York TRACON
Sat 06:17:31 PM 40.6000 -73.0833 52° Northeast 280 322 3,400 -474 Descending New York TRACON
Sat 06:18:25 PM 40.6333 -73.0167 57° Northeast 265 305 3,100 -300 Descending New York TRACON
Sat 06:19:31 PM 40.6667 -72.9000 69° East 278 320 2,800 -714 Descending New York TRACON
Sat 06:20:31 PM 40.7000 -72.8167 62° Northeast 270 311 1,600 -650 Descending New York TRACON
Sat 06:21:31 PM 40.7333 -72.7333 62° Northeast 260 299 1,500 -53 Descending New York TRACON
Sat 06:22:25 PM 40.7833 -72.6833 37° Northeast 231 266 1,500  Level New York TRACON
Sat 06:23:31 PM 40.8167 -72.6167 57° Northeast 183 211 1,500  Level New York TRACON
Sat 06:24:31 PM 40.8500 -72.5667 49° Northeast 188 216 1,500 -450 Level New York TRACON
Sat 06:25:31 PM 40.8667 -72.6000 303° West 151 174 600 -900 Descending New York TRACON

Login

Don't have an account? Register now (free) for customized features, flight alerts, and more!